sensor_id;sensor_type;location;lat;lon;timestamp;pressure;altitude;pressure_sealevel;temperature;humidity
21826;BME280;11075;47.944;11.776;2023-06-14T00:01:56;94161.31;;;6.32;33.86
21826;BME280;11075;47.944;11.776;2023-06-14T00:04:23;94172.13;;;6.74;33.17
21826;BME280;11075;47.944;11.776;2023-06-14T00:06:52;94165.53;;;6.72;32.90
21826;BME280;11075;47.944;11.776;2023-06-14T00:09:19;94164.78;;;5.95;34.09
21826;BME280;11075;47.944;11.776;2023-06-14T00:11:46;94167.00;;;6.31;33.53
21826;BME280;11075;47.944;11.776;2023-06-14T00:14:12;94152.25;;;5.78;34.97
21826;BME280;11075;47.944;11.776;2023-06-14T00:16:40;94149.00;;;5.64;34.80
21826;BME280;11075;47.944;11.776;2023-06-14T00:19:11;94151.63;;;5.73;34.84
21826;BME280;11075;47.944;11.776;2023-06-14T00:21:38;94156.72;;;5.40;35.39
21826;BME280;11075;47.944;11.776;2023-06-14T00:24:07;94166.53;;;6.29;33.87
21826;BME280;11075;47.944;11.776;2023-06-14T00:26:34;94166.94;;;6.48;33.22
21826;BME280;11075;47.944;11.776;2023-06-14T00:29:01;94167.84;;;6.52;33.46
21826;BME280;11075;47.944;11.776;2023-06-14T00:31:27;94171.50;;;6.48;33.39
21826;BME280;11075;47.944;11.776;2023-06-14T00:33:54;94167.78;;;6.31;33.34
21826;BME280;11075;47.944;11.776;2023-06-14T00:36:21;94177.22;;;6.67;32.66
21826;BME280;11075;47.944;11.776;2023-06-14T00:38:48;94170.50;;;6.23;33.62
21826;BME280;11075;47.944;11.776;2023-06-14T00:41:15;94184.63;;;6.61;32.82
21826;BME280;11075;47.944;11.776;2023-06-14T00:43:42;94185.97;;;6.09;33.66
21826;BME280;11075;47.944;11.776;2023-06-14T00:46:09;94183.63;;;6.07;33.67
21826;BME280;11075;47.944;11.776;2023-06-14T00:48:36;94183.91;;;6.52;33.07
21826;BME280;11075;47.944;11.776;2023-06-14T00:51:05;94180.84;;;6.62;32.81
21826;BME280;11075;47.944;11.776;2023-06-14T00:53:32;94165.44;;;5.83;34.69
21826;BME280;11075;47.944;11.776;2023-06-14T00:56:02;94169.25;;;5.74;34.96
21826;BME280;11075;47.944;11.776;2023-06-14T00:58:30;94168.44;;;5.82;34.27
21826;BME280;11075;47.944;11.776;2023-06-14T01:00:57;94161.84;;;5.79;34.32
21826;BME280;11075;47.944;11.776;2023-06-14T01:03:24;94160.31;;;5.61;34.71
21826;BME280;11075;47.944;11.776;2023-06-14T01:05:59;94159.84;;;5.59;35.01
21826;BME280;11075;47.944;11.776;2023-06-14T01:08:47;94156.88;;;5.43;35.07
21826;BME280;11075;47.944;11.776;2023-06-14T01:11:21;94173.53;;;5.31;35.14
21826;BME280;11075;47.944;11.776;2023-06-14T01:13:50;94162.41;;;4.95;35.31
21826;BME280;11075;47.944;11.776;2023-06-14T01:16:21;94158.44;;;5.35;34.92
21826;BME280;11075;47.944;11.776;2023-06-14T01:18:49;94162.22;;;5.34;34.74
21826;BME280;11075;47.944;11.776;2023-06-14T01:21:25;94150.13;;;4.68;36.00
21826;BME280;11075;47.944;11.776;2023-06-14T01:23:55;94155.63;;;4.71;35.97
21826;BME280;11075;47.944;11.776;2023-06-14T01:26:25;94158.31;;;4.89;35.24
21826;BME280;11075;47.944;11.776;2023-06-14T01:28:56;94182.03;;;5.25;35.03
21826;BME280;11075;47.944;11.776;2023-06-14T01:31:25;94190.41;;;5.96;33.47
21826;BME280;11075;47.944;11.776;2023-06-14T01:33:53;94191.28;;;5.45;34.33
21826;BME280;11075;47.944;11.776;2023-06-14T01:36:22;94200.72;;;5.51;34.18
21826;BME280;11075;47.944;11.776;2023-06-14T01:38:55;94199.31;;;5.62;33.79
21826;BME280;11075;47.944;11.776;2023-06-14T01:41:23;94194.44;;;5.64;33.79
21826;BME280;11075;47.944;11.776;2023-06-14T01:43:52;94180.00;;;5.13;35.00
21826;BME280;11075;47.944;11.776;2023-06-14T01:46:19;94191.16;;;4.98;34.83
21826;BME280;11075;47.944;11.776;2023-06-14T01:48:47;94189.56;;;5.31;34.54
21826;BME280;11075;47.944;11.776;2023-06-14T01:51:14;94193.31;;;5.48;34.19
21826;BME280;11075;47.944;11.776;2023-06-14T01:53:41;94205.28;;;5.59;33.30
21826;BME280;11075;47.944;11.776;2023-06-14T01:56:09;94205.56;;;5.83;33.48
21826;BME280;11075;47.944;11.776;2023-06-14T01:58:36;94200.88;;;5.37;34.24
21826;BME280;11075;47.944;11.776;2023-06-14T02:01:03;94186.41;;;4.86;35.04
21826;BME280;11075;47.944;11.776;2023-06-14T02:03:30;94182.03;;;4.90;34.58
21826;BME280;11075;47.944;11.776;2023-06-14T02:05:57;94183.44;;;4.88;35.29
21826;BME280;11075;47.944;11.776;2023-06-14T02:08:24;94187.03;;;4.83;35.11
21826;BME280;11075;47.944;11.776;2023-06-14T02:10:51;94193.34;;;5.30;34.43
21826;BME280;11075;47.944;11.776;2023-06-14T02:13:20;94198.38;;;5.41;34.31
21826;BME280;11075;47.944;11.776;2023-06-14T02:15:47;94193.78;;;4.63;35.26
21826;BME280;11075;47.944;11.776;2023-06-14T02:18:17;94162.72;;;3.80;37.11
21826;BME280;11075;47.944;11.776;2023-06-14T02:20:45;94187.56;;;4.46;35.69
21826;BME280;11075;47.944;11.776;2023-06-14T02:23:12;94197.19;;;4.55;35.60
21826;BME280;11075;47.944;11.776;2023-06-14T02:25:38;94173.75;;;3.95;36.62
21826;BME280;11075;47.944;11.776;2023-06-14T02:28:07;94198.22;;;4.94;34.59
21826;BME280;11075;47.944;11.776;2023-06-14T02:30:33;94210.00;;;5.27;34.65
21826;BME280;11075;47.944;11.776;2023-06-14T02:33:00;94205.03;;;4.60;35.37
21826;BME280;11075;47.944;11.776;2023-06-14T02:35:27;94202.38;;;4.60;35.06
21826;BME280;11075;47.944;11.776;2023-06-14T02:37:55;94202.94;;;5.06;34.27
21826;BME280;11075;47.944;11.776;2023-06-14T02:40:22;94210.78;;;5.19;34.29
21826;BME280;11075;47.944;11.776;2023-06-14T02:42:49;94200.88;;;4.85;35.00
21826;BME280;11075;47.944;11.776;2023-06-14T02:45:17;94191.25;;;4.19;35.62
21826;BME280;11075;47.944;11.776;2023-06-14T02:47:45;94183.06;;;4.06;36.48
21826;BME280;11075;47.944;11.776;2023-06-14T02:50:12;94194.28;;;4.26;35.86
21826;BME280;11075;47.944;11.776;2023-06-14T02:52:40;94181.00;;;4.03;36.87
21826;BME280;11075;47.944;11.776;2023-06-14T02:55:08;94194.91;;;4.31;36.33
21826;BME280;11075;47.944;11.776;2023-06-14T02:57:37;94208.16;;;4.54;35.76
21826;BME280;11075;47.944;11.776;2023-06-14T03:00:04;94215.16;;;4.81;34.71
21826;BME280;11075;47.944;11.776;2023-06-14T03:02:34;94213.06;;;4.21;35.60
21826;BME280;11075;47.944;11.776;2023-06-14T03:05:01;94216.59;;;4.38;35.29
21826;BME280;11075;47.944;11.776;2023-06-14T03:07:30;94227.22;;;4.69;34.60
21826;BME280;11075;47.944;11.776;2023-06-14T03:09:58;94225.41;;;4.48;35.06
21826;BME280;11075;47.944;11.776;2023-06-14T03:12:26;94234.59;;;4.73;34.83
21826;BME280;11075;47.944;11.776;2023-06-14T03:14:53;94217.94;;;4.19;35.73
21826;BME280;11075;47.944;11.776;2023-06-14T03:17:24;94221.94;;;4.47;35.37
21826;BME280;11075;47.944;11.776;2023-06-14T03:19:57;94236.78;;;4.70;35.57
21826;BME280;11075;47.944;11.776;2023-06-14T03:22:24;94229.72;;;4.66;35.23
21826;BME280;11075;47.944;11.776;2023-06-14T03:24:52;94245.91;;;4.69;35.23
21826;BME280;11075;47.944;11.776;2023-06-14T03:27:21;94237.78;;;4.44;35.61
21826;BME280;11075;47.944;11.776;2023-06-14T03:29:48;94253.84;;;5.18;34.29
21826;BME280;11075;47.944;11.776;2023-06-14T03:32:16;94264.06;;;5.42;33.76
21826;BME280;11075;47.944;11.776;2023-06-14T03:34:43;94255.09;;;5.20;34.66
21826;BME280;11075;47.944;11.776;2023-06-14T03:37:18;94246.25;;;4.94;35.29
21826;BME280;11075;47.944;11.776;2023-06-14T03:39:46;94260.13;;;5.22;34.41
21826;BME280;11075;47.944;11.776;2023-06-14T03:42:21;94248.78;;;4.99;35.34
21826;BME280;11075;47.944;11.776;2023-06-14T03:44:48;94272.72;;;5.56;33.82
21826;BME280;11075;47.944;11.776;2023-06-14T03:47:17;94270.81;;;5.48;34.05
21826;BME280;11075;47.944;11.776;2023-06-14T03:49:44;94271.13;;;5.20;34.12
21826;BME280;11075;47.944;11.776;2023-06-14T03:52:10;94276.16;;;5.39;34.17
21826;BME280;11075;47.944;11.776;2023-06-14T03:54:39;94261.22;;;5.29;34.83
21826;BME280;11075;47.944;11.776;2023-06-14T03:57:29;94270.66;;;5.44;34.69
21826;BME280;11075;47.944;11.776;2023-06-14T03:59:56;94281.03;;;5.80;33.72
21826;BME280;11075;47.944;11.776;2023-06-14T04:02:25;94295.34;;;5.84;33.86
21826;BME280;11075;47.944;11.776;2023-06-14T04:04:55;94296.75;;;5.90;33.83
21826;BME280;11075;47.944;11.776;2023-06-14T04:07:22;94283.09;;;5.66;34.40
21826;BME280;11075;47.944;11.776;2023-06-14T04:09:50;94294.09;;;5.56;34.31
21826;BME280;11075;47.944;11.776;2023-06-14T04:12:17;94291.75;;;5.54;34.59
21826;BME280;11075;47.944;11.776;2023-06-14T04:14:44;94299.91;;;5.84;34.15
21826;BME280;11075;47.944;11.776;2023-06-14T04:17:11;94294.25;;;5.77;34.54
21826;BME280;11075;47.944;11.776;2023-06-14T04:19:41;94296.16;;;5.76;34.81
21826;BME280;11075;47.944;11.776;2023-06-14T04:22:08;94313.34;;;6.30;34.04
21826;BME280;11075;47.944;11.776;2023-06-14T04:24:38;94311.28;;;6.53;33.57
21826;BME280;11075;47.944;11.776;2023-06-14T04:27:05;94307.22;;;6.30;34.29
21826;BME280;11075;47.944;11.776;2023-06-14T04:29:35;94312.38;;;6.52;33.77
21826;BME280;11075;47.944;11.776;2023-06-14T04:32:06;94318.22;;;6.46;34.12
21826;BME280;11075;47.944;11.776;2023-06-14T04:34:37;94281.78;;;5.12;36.65
21826;BME280;11075;47.944;11.776;2023-06-14T04:37:07;94325.91;;;6.94;33.86
21826;BME280;11075;47.944;11.776;2023-06-14T04:39:37;94326.19;;;6.63;34.43
21826;BME280;11075;47.944;11.776;2023-06-14T04:42:04;94309.16;;;6.04;35.48
21826;BME280;11075;47.944;11.776;2023-06-14T04:44:33;94299.56;;;5.51;36.06
21826;BME280;11075;47.944;11.776;2023-06-14T04:47:02;94298.13;;;5.10;37.18
21826;BME280;11075;47.944;11.776;2023-06-14T04:49:28;94317.34;;;5.98;35.70
21826;BME280;11075;47.944;11.776;2023-06-14T04:51:57;94323.78;;;6.06;35.59
21826;BME280;11075;47.944;11.776;2023-06-14T04:54:30;94346.81;;;6.62;35.05
21826;BME280;11075;47.944;11.776;2023-06-14T04:57:01;94327.09;;;6.03;35.42
21826;BME280;11075;47.944;11.776;2023-06-14T04:59:29;94347.59;;;6.72;35.03
21826;BME280;11075;47.944;11.776;2023-06-14T05:01:59;94332.81;;;6.66;35.53
21826;BME280;11075;47.944;11.776;2023-06-14T05:04:27;94344.34;;;7.54;34.55
21826;BME280;11075;47.944;11.776;2023-06-14T05:06:55;94345.78;;;7.93;34.40
21826;BME280;11075;47.944;11.776;2023-06-14T05:09:24;94355.84;;;7.97;34.25
21826;BME280;11075;47.944;11.776;2023-06-14T05:11:51;94354.41;;;8.20;34.00
21826;BME280;11075;47.944;11.776;2023-06-14T05:14:17;94345.47;;;7.74;34.74
21826;BME280;11075;47.944;11.776;2023-06-14T05:16:45;94350.22;;;7.89;34.79
21826;BME280;11075;47.944;11.776;2023-06-14T05:19:12;94346.72;;;8.31;34.50
21826;BME280;11075;47.944;11.776;2023-06-14T05:21:39;94345.72;;;8.02;35.00
21826;BME280;11075;47.944;11.776;2023-06-14T05:24:09;94366.47;;;9.04;33.65
21826;BME280;11075;47.944;11.776;2023-06-14T05:26:36;94350.06;;;8.73;34.77
21826;BME280;11075;47.944;11.776;2023-06-14T05:29:03;94358.31;;;9.01;33.87
21826;BME280;11075;47.944;11.776;2023-06-14T05:31:30;94354.94;;;10.05;33.70
21826;BME280;11075;47.944;11.776;2023-06-14T05:33:57;94389.59;;;11.22;31.67
21826;BME280;11075;47.944;11.776;2023-06-14T05:36:24;94386.47;;;11.35;31.75
21826;BME280;11075;47.944;11.776;2023-06-14T05:38:52;94361.50;;;11.07;32.88
21826;BME280;11075;47.944;11.776;2023-06-14T05:41:27;94353.06;;;10.21;33.30
21826;BME280;11075;47.944;11.776;2023-06-14T05:43:55;94353.81;;;11.40;32.88
21826;BME280;11075;47.944;11.776;2023-06-14T05:46:23;94379.94;;;11.87;31.34
21826;BME280;11075;47.944;11.776;2023-06-14T05:48:55;94405.44;;;11.90;30.47
21826;BME280;11075;47.944;11.776;2023-06-14T05:51:22;94426.75;;;12.68;28.36
21826;BME280;11075;47.944;11.776;2023-06-14T05:53:52;94404.13;;;11.99;30.07
21826;BME280;11075;47.944;11.776;2023-06-14T05:56:19;94417.13;;;12.13;28.81
21826;BME280;11075;47.944;11.776;2023-06-14T05:58:46;94432.06;;;13.49;27.48
21826;BME280;11075;47.944;11.776;2023-06-14T06:01:14;94429.41;;;13.76;27.17
21826;BME280;11075;47.944;11.776;2023-06-14T06:03:41;94428.94;;;13.01;27.62
21826;BME280;11075;47.944;11.776;2023-06-14T06:06:13;94430.53;;;12.83;27.78
21826;BME280;11075;47.944;11.776;2023-06-14T06:08:40;94429.31;;;13.46;27.35
21826;BME280;11075;47.944;11.776;2023-06-14T06:11:07;94454.72;;;13.87;26.37
21826;BME280;11075;47.944;11.776;2023-06-14T06:13:34;94448.56;;;13.63;26.85
21826;BME280;11075;47.944;11.776;2023-06-14T06:16:03;94433.28;;;13.75;27.26
21826;BME280;11075;47.944;11.776;2023-06-14T06:18:30;94434.47;;;13.09;27.57
21826;BME280;11075;47.944;11.776;2023-06-14T06:20:57;94440.56;;;13.25;26.98
21826;BME280;11075;47.944;11.776;2023-06-14T06:23:24;94439.44;;;12.45;26.67
21826;BME280;11075;47.944;11.776;2023-06-14T06:25:51;94451.81;;;12.65;26.42
21826;BME280;11075;47.944;11.776;2023-06-14T06:28:18;94449.03;;;12.62;26.91
21826;BME280;11075;47.944;11.776;2023-06-14T06:30:45;94459.44;;;13.21;26.31
21826;BME280;11075;47.944;11.776;2023-06-14T06:33:12;94468.50;;;14.27;25.77
21826;BME280;11075;47.944;11.776;2023-06-14T06:35:43;94459.66;;;14.34;25.86
21826;BME280;11075;47.944;11.776;2023-06-14T06:38:10;94487.06;;;14.55;24.72
21826;BME280;11075;47.944;11.776;2023-06-14T06:40:37;94481.25;;;14.27;25.09
21826;BME280;11075;47.944;11.776;2023-06-14T06:43:04;94501.25;;;15.42;24.02
21826;BME280;11075;47.944;11.776;2023-06-14T06:45:39;94472.31;;;14.53;25.29
21826;BME280;11075;47.944;11.776;2023-06-14T06:48:06;94464.72;;;14.36;25.72
21826;BME280;11075;47.944;11.776;2023-06-14T06:50:33;94475.03;;;15.20;25.29
21826;BME280;11075;47.944;11.776;2023-06-14T06:53:00;94490.50;;;16.59;23.85
21826;BME280;11075;47.944;11.776;2023-06-14T06:55:27;94471.59;;;15.26;25.24
21826;BME280;11075;47.944;11.776;2023-06-14T06:57:54;94479.34;;;16.13;24.62
21826;BME280;11075;47.944;11.776;2023-06-14T07:00:21;94452.84;;;14.44;25.96
21826;BME280;11075;47.944;11.776;2023-06-14T07:02:48;94469.50;;;15.98;25.81
21826;BME280;11075;47.944;11.776;2023-06-14T07:05:15;94491.75;;;15.63;24.40
21826;BME280;11075;47.944;11.776;2023-06-14T07:07:42;94484.41;;;16.91;23.66
21826;BME280;11075;47.944;11.776;2023-06-14T07:10:09;94485.69;;;16.35;24.86
21826;BME280;11075;47.944;11.776;2023-06-14T07:12:36;94486.34;;;16.87;24.24
21826;BME280;11075;47.944;11.776;2023-06-14T07:15:09;94515.41;;;16.65;23.47
21826;BME280;11075;47.944;11.776;2023-06-14T07:17:36;94506.47;;;16.64;24.00
21826;BME280;11075;47.944;11.776;2023-06-14T07:20:04;94525.78;;;17.32;22.99
21826;BME280;11075;47.944;11.776;2023-06-14T07:22:41;94498.72;;;14.59;24.87
21826;BME280;11075;47.944;11.776;2023-06-14T07:25:09;94515.94;;;16.30;23.61
21826;BME280;11075;47.944;11.776;2023-06-14T07:27:40;94546.13;;;15.70;22.21
21826;BME280;11075;47.944;11.776;2023-06-14T07:30:08;94556.09;;;17.23;21.77
21826;BME280;11075;47.944;11.776;2023-06-14T07:32:36;94535.66;;;16.74;23.02
21826;BME280;11075;47.944;11.776;2023-06-14T07:35:03;94568.59;;;17.35;21.14
21826;BME280;11075;47.944;11.776;2023-06-14T07:37:30;94553.94;;;18.32;21.39
21826;BME280;11075;47.944;11.776;2023-06-14T07:39:57;94560.16;;;18.15;21.18
21826;BME280;11075;47.944;11.776;2023-06-14T07:42:24;94575.56;;;19.24;20.24
21826;BME280;11075;47.944;11.776;2023-06-14T07:44:51;94565.22;;;18.62;21.35
21826;BME280;11075;47.944;11.776;2023-06-14T07:47:19;94543.75;;;17.65;21.79
21826;BME280;11075;47.944;11.776;2023-06-14T07:49:46;94548.47;;;17.75;21.59
21826;BME280;11075;47.944;11.776;2023-06-14T07:52:13;94540.56;;;17.27;22.51
21826;BME280;11075;47.944;11.776;2023-06-14T07:54:40;94535.09;;;19.05;21.38
21826;BME280;11075;47.944;11.776;2023-06-14T07:57:07;94549.59;;;18.84;21.27
21826;BME280;11075;47.944;11.776;2023-06-14T07:59:35;94532.50;;;17.77;21.97
21826;BME280;11075;47.944;11.776;2023-06-14T08:02:03;94512.66;;;18.30;22.77
21826;BME280;11075;47.944;11.776;2023-06-14T08:04:30;94518.50;;;18.32;22.53
21826;BME280;11075;47.944;11.776;2023-06-14T08:06:58;94518.88;;;18.16;22.51
21826;BME280;11075;47.944;11.776;2023-06-14T08:09:25;94544.53;;;18.83;21.33
21826;BME280;11075;47.944;11.776;2023-06-14T08:11:52;94548.78;;;19.75;21.12
21826;BME280;11075;47.944;11.776;2023-06-14T08:14:19;94550.16;;;19.42;21.20
21826;BME280;11075;47.944;11.776;2023-06-14T08:16:46;94585.94;;;19.61;19.43
21826;BME280;11075;47.944;11.776;2023-06-14T08:19:12;94571.59;;;19.43;19.89
21826;BME280;11075;47.944;11.776;2023-06-14T08:21:39;94569.50;;;18.53;20.65
21826;BME280;11075;47.944;11.776;2023-06-14T08:24:06;94571.78;;;18.90;20.54
21826;BME280;11075;47.944;11.776;2023-06-14T08:26:34;94594.91;;;20.73;18.29
21826;BME280;11075;47.944;11.776;2023-06-14T08:29:00;94610.22;;;19.45;18.38
21826;BME280;11075;47.944;11.776;2023-06-14T08:31:27;94595.97;;;19.89;19.11
21826;BME280;11075;47.944;11.776;2023-06-14T08:33:54;94594.84;;;20.83;18.98
21826;BME280;11075;47.944;11.776;2023-06-14T08:36:21;94610.06;;;19.81;18.53
21826;BME280;11075;47.944;11.776;2023-06-14T08:38:49;94619.63;;;19.41;18.52
21826;BME280;11075;47.944;11.776;2023-06-14T08:41:23;94596.63;;;19.34;19.75
21826;BME280;11075;47.944;11.776;2023-06-14T08:43:51;94599.69;;;21.06;19.17
21826;BME280;11075;47.944;11.776;2023-06-14T08:46:19;94615.91;;;19.79;18.46
21826;BME280;11075;47.944;11.776;2023-06-14T08:48:49;94595.22;;;18.62;19.93
21826;BME280;11075;47.944;11.776;2023-06-14T08:51:20;94605.94;;;20.65;18.74
21826;BME280;11075;47.944;11.776;2023-06-14T08:53:55;94619.81;;;20.89;18.04
21826;BME280;11075;47.944;11.776;2023-06-14T08:56:26;94593.31;;;20.30;18.96
21826;BME280;11075;47.944;11.776;2023-06-14T08:58:56;94590.88;;;20.43;19.31
21826;BME280;11075;47.944;11.776;2023-06-14T09:01:23;94600.75;;;20.33;18.56
21826;BME280;11075;47.944;11.776;2023-06-14T09:03:50;94601.75;;;20.95;18.35
21826;BME280;11075;47.944;11.776;2023-06-14T09:06:18;94596.38;;;20.40;18.25
21826;BME280;11075;47.944;11.776;2023-06-14T09:08:46;94614.13;;;20.17;18.12
21826;BME280;11075;47.944;11.776;2023-06-14T09:11:17;94593.09;;;19.37;19.05
21826;BME280;11075;47.944;11.776;2023-06-14T09:13:48;94588.00;;;19.43;18.96
21826;BME280;11075;47.944;11.776;2023-06-14T09:16:16;94607.06;;;21.09;18.31
21826;BME280;11075;47.944;11.776;2023-06-14T09:18:44;94598.28;;;20.46;18.89
21826;BME280;11075;47.944;11.776;2023-06-14T09:21:16;94605.44;;;20.29;18.08
21826;BME280;11075;47.944;11.776;2023-06-14T09:23:45;94600.41;;;20.21;18.57
21826;BME280;11075;47.944;11.776;2023-06-14T09:26:17;94610.78;;;18.76;18.95
21826;BME280;11075;47.944;11.776;2023-06-14T09:28:45;94596.72;;;19.93;19.23
21826;BME280;11075;47.944;11.776;2023-06-14T09:31:15;94609.97;;;21.33;17.64
21826;BME280;11075;47.944;11.776;2023-06-14T09:33:43;94600.19;;;21.62;18.89
21826;BME280;11075;47.944;11.776;2023-06-14T09:36:21;94590.69;;;20.64;19.45
21826;BME280;11075;47.944;11.776;2023-06-14T09:38:59;94608.53;;;20.35;18.74
21826;BME280;11075;47.944;11.776;2023-06-14T09:41:34;94633.56;;;21.19;17.06
21826;BME280;11075;47.944;11.776;2023-06-14T09:44:03;94623.66;;;20.95;18.09
21826;BME280;11075;47.944;11.776;2023-06-14T09:46:36;94622.66;;;21.50;18.09
21826;BME280;11075;47.944;11.776;2023-06-14T09:49:04;94622.66;;;19.57;18.49
21826;BME280;11075;47.944;11.776;2023-06-14T09:51:33;94616.19;;;20.54;19.02
21826;BME280;11075;47.944;11.776;2023-06-14T09:54:03;94611.66;;;20.37;18.13
21826;BME280;11075;47.944;11.776;2023-06-14T09:56:37;94628.28;;;22.00;17.20
21826;BME280;11075;47.944;11.776;2023-06-14T09:59:06;94621.47;;;22.39;17.56
21826;BME280;11075;47.944;11.776;2023-06-14T10:01:41;94637.66;;;21.04;17.62
21826;BME280;11075;47.944;11.776;2023-06-14T10:04:09;94633.97;;;22.40;16.70
21826;BME280;11075;47.944;11.776;2023-06-14T10:06:41;94639.00;;;22.68;16.05
21826;BME280;11075;47.944;11.776;2023-06-14T10:09:10;94626.13;;;22.15;17.36
21826;BME280;11075;47.944;11.776;2023-06-14T10:11:38;94617.03;;;22.45;17.36
21826;BME280;11075;47.944;11.776;2023-06-14T10:14:12;94624.88;;;21.92;17.03
21826;BME280;11075;47.944;11.776;2023-06-14T10:16:56;94621.50;;;22.35;16.62
21826;BME280;11075;47.944;11.776;2023-06-14T10:20:02;94623.88;;;21.11;17.72
21826;BME280;11075;47.944;11.776;2023-06-14T10:22:34;94612.53;;;21.47;17.80
21826;BME280;11075;47.944;11.776;2023-06-14T10:25:07;94602.91;;;22.46;17.57
21826;BME280;11075;47.944;11.776;2023-06-14T10:27:38;94610.25;;;22.76;16.99
21826;BME280;11075;47.944;11.776;2023-06-14T10:30:07;94632.81;;;22.64;15.97
21826;BME280;11075;47.944;11.776;2023-06-14T10:32:34;94620.91;;;21.33;16.94
21826;BME280;11075;47.944;11.776;2023-06-14T10:35:05;94633.00;;;22.77;15.29
21826;BME280;11075;47.944;11.776;2023-06-14T10:37:33;94617.84;;;21.91;16.71
21826;BME280;11075;47.944;11.776;2023-06-14T10:40:00;94593.13;;;23.51;16.84
21826;BME280;11075;47.944;11.776;2023-06-14T10:42:33;94608.09;;;22.64;15.95
21826;BME280;11075;47.944;11.776;2023-06-14T10:45:00;94589.41;;;22.55;17.61
21826;BME280;11075;47.944;11.776;2023-06-14T10:47:31;94619.69;;;23.18;16.30
21826;BME280;11075;47.944;11.776;2023-06-14T10:50:03;94624.09;;;21.92;16.55
21826;BME280;11075;47.944;11.776;2023-06-14T10:52:38;94618.00;;;22.08;16.34
21826;BME280;11075;47.944;11.776;2023-06-14T10:55:12;94623.63;;;22.24;15.85
21826;BME280;11075;47.944;11.776;2023-06-14T10:57:52;94611.75;;;24.68;15.65
21826;BME280;11075;47.944;11.776;2023-06-14T11:00:24;94633.16;;;24.61;14.89
21826;BME280;11075;47.944;11.776;2023-06-14T11:05:30;94618.44;;;23.82;15.80
21826;BME280;11075;47.944;11.776;2023-06-14T11:10:43;94601.13;;;22.60;17.28
21826;BME280;11075;47.944;11.776;2023-06-14T11:13:12;94613.34;;;22.32;15.77
21826;BME280;11075;47.944;11.776;2023-06-14T11:15:43;94611.03;;;23.60;16.16
21826;BME280;11075;47.944;11.776;2023-06-14T11:18:11;94627.16;;;24.66;15.87
21826;BME280;11075;47.944;11.776;2023-06-14T11:20:39;94599.22;;;19.63;18.11
21826;BME280;11075;47.944;11.776;2023-06-14T11:23:07;94598.25;;;22.43;17.12
21826;BME280;11075;47.944;11.776;2023-06-14T11:25:34;94614.75;;;23.89;15.89
21826;BME280;11075;47.944;11.776;2023-06-14T11:28:00;94617.88;;;24.07;15.68
21826;BME280;11075;47.944;11.776;2023-06-14T11:30:27;94595.69;;;21.48;17.16
21826;BME280;11075;47.944;11.776;2023-06-14T11:32:55;94591.06;;;22.73;16.96
21826;BME280;11075;47.944;11.776;2023-06-14T11:35:25;94597.66;;;23.22;16.22
21826;BME280;11075;47.944;11.776;2023-06-14T11:37:54;94600.34;;;23.26;15.83
21826;BME280;11075;47.944;11.776;2023-06-14T11:40:25;94605.00;;;24.21;15.32
21826;BME280;11075;47.944;11.776;2023-06-14T11:42:59;94609.34;;;23.66;15.40
21826;BME280;11075;47.944;11.776;2023-06-14T11:45:27;94577.25;;;22.33;17.69
21826;BME280;11075;47.944;11.776;2023-06-14T11:47:55;94579.81;;;23.50;16.53
21826;BME280;11075;47.944;11.776;2023-06-14T11:50:28;94599.94;;;22.84;15.64
21826;BME280;11075;47.944;11.776;2023-06-14T11:52:56;94589.91;;;22.23;16.31
21826;BME280;11075;47.944;11.776;2023-06-14T11:55:24;94599.09;;;21.56;15.62
21826;BME280;11075;47.944;11.776;2023-06-14T11:57:53;94575.56;;;22.63;16.80
21826;BME280;11075;47.944;11.776;2023-06-14T12:00:24;94577.16;;;24.19;16.17
21826;BME280;11075;47.944;11.776;2023-06-14T12:02:53;94597.53;;;22.63;15.50
21826;BME280;11075;47.944;11.776;2023-06-14T12:05:24;94591.72;;;20.81;16.67
21826;BME280;11075;47.944;11.776;2023-06-14T12:07:59;94584.22;;;21.87;16.30
21826;BME280;11075;47.944;11.776;2023-06-14T12:10:27;94573.16;;;24.03;16.68
21826;BME280;11075;47.944;11.776;2023-06-14T12:12:58;94596.06;;;23.80;15.10
21826;BME280;11075;47.944;11.776;2023-06-14T12:15:29;94586.19;;;24.19;15.51
21826;BME280;11075;47.944;11.776;2023-06-14T12:17:58;94586.47;;;24.05;16.11
21826;BME280;11075;47.944;11.776;2023-06-14T12:20:29;94568.13;;;23.06;16.10
21826;BME280;11075;47.944;11.776;2023-06-14T12:22:58;94576.84;;;23.97;15.92
21826;BME280;11075;47.944;11.776;2023-06-14T12:25:30;94589.19;;;25.02;15.00
21826;BME280;11075;47.944;11.776;2023-06-14T12:27:59;94589.13;;;23.92;14.83
21826;BME280;11075;47.944;11.776;2023-06-14T12:30:26;94577.59;;;23.25;15.92
21826;BME280;11075;47.944;11.776;2023-06-14T12:32:53;94601.97;;;23.23;15.00
21826;BME280;11075;47.944;11.776;2023-06-14T12:35:20;94582.22;;;22.15;16.79
21826;BME280;11075;47.944;11.776;2023-06-14T12:37:47;94595.53;;;23.10;14.94
21826;BME280;11075;47.944;11.776;2023-06-14T12:40:14;94583.47;;;22.37;16.08
21826;BME280;11075;47.944;11.776;2023-06-14T12:42:41;94577.50;;;23.48;16.13
21826;BME280;11075;47.944;11.776;2023-06-14T12:45:09;94606.31;;;24.65;14.68
21826;BME280;11075;47.944;11.776;2023-06-14T12:47:37;94583.78;;;22.16;17.60
21826;BME280;11075;47.944;11.776;2023-06-14T12:50:04;94589.97;;;24.41;15.69
21826;BME280;11075;47.944;11.776;2023-06-14T12:52:31;94578.13;;;23.36;16.32
21826;BME280;11075;47.944;11.776;2023-06-14T12:54:58;94576.84;;;22.35;17.24
21826;BME280;11075;47.944;11.776;2023-06-14T12:57:25;94609.69;;;23.08;15.32
21826;BME280;11075;47.944;11.776;2023-06-14T12:59:52;94595.47;;;24.25;15.00
21826;BME280;11075;47.944;11.776;2023-06-14T13:02:19;94603.78;;;24.05;15.37
21826;BME280;11075;47.944;11.776;2023-06-14T13:04:52;94600.06;;;22.27;15.93
21826;BME280;11075;47.944;11.776;2023-06-14T13:07:18;94572.88;;;22.59;16.91
21826;BME280;11075;47.944;11.776;2023-06-14T13:09:46;94594.03;;;23.05;15.03